createdAt,value
2023-11-25T00:00:28.282Z,12.80
2023-11-25T00:03:17.646Z,12.80
2023-11-25T00:06:06.413Z,12.80
2023-11-25T00:08:54.785Z,12.80
2023-11-25T00:11:44.737Z,12.80
2023-11-25T00:14:33.166Z,12.80
2023-11-25T00:17:23.612Z,12.80
2023-11-25T00:20:12.859Z,12.80
2023-11-25T00:23:01.271Z,12.80
2023-11-25T00:25:50.064Z,12.80
2023-11-25T00:28:39.792Z,12.80
2023-11-25T00:31:28.292Z,12.80
2023-11-25T00:34:17.679Z,12.80
2023-11-25T00:37:07.427Z,12.70
2023-11-25T00:39:55.949Z,12.70
2023-11-25T00:42:44.475Z,12.70
2023-11-25T00:45:34.306Z,12.70
2023-11-25T00:48:22.949Z,12.70
2023-11-25T00:51:11.413Z,12.70
2023-11-25T00:53:59.856Z,12.70
2023-11-25T00:56:48.222Z,12.70
2023-11-25T00:59:36.493Z,12.70
2023-11-25T01:02:26.952Z,12.60
2023-11-25T01:05:15.519Z,12.70
2023-11-25T01:08:03.914Z,12.70
2023-11-25T01:10:53.061Z,12.60
2023-11-25T01:13:41.516Z,12.60
2023-11-25T01:16:30.069Z,12.60
2023-11-25T01:19:20.118Z,12.60
2023-11-25T01:22:08.668Z,12.60
2023-11-25T01:24:57.774Z,12.60
2023-11-25T01:27:46.192Z,12.60
2023-11-25T01:30:35.529Z,12.60
2023-11-25T01:33:24.095Z,12.60
2023-11-25T01:36:13.953Z,12.60
2023-11-25T01:39:02.448Z,12.50
2023-11-25T01:41:52.037Z,12.50
2023-11-25T01:44:40.476Z,12.50
2023-11-25T01:47:29.072Z,12.50
2023-11-25T01:50:17.672Z,12.50
2023-11-25T01:53:08.895Z,12.50
2023-11-25T01:55:59.664Z,12.50
2023-11-25T01:58:48.469Z,12.50
2023-11-25T02:01:37.006Z,12.50
2023-11-25T02:04:25.567Z,12.50
2023-11-25T02:07:14.203Z,12.50
2023-11-25T02:10:04.040Z,12.50
2023-11-25T02:12:52.437Z,12.50
2023-11-25T02:15:42.248Z,12.50
2023-11-25T02:18:30.837Z,12.50
2023-11-25T02:21:21.189Z,12.50
2023-11-25T02:24:11.645Z,12.50
2023-11-25T02:27:01.358Z,12.50
2023-11-25T02:29:51.002Z,12.50
2023-11-25T02:32:39.644Z,12.50
2023-11-25T02:35:28.132Z,12.50
2023-11-25T02:38:17.135Z,12.60
2023-11-25T02:41:07.378Z,12.60
2023-11-25T02:43:55.823Z,12.60
2023-11-25T02:46:46.473Z,12.60
2023-11-25T02:49:35.102Z,12.60
2023-11-25T02:52:27.515Z,12.60
2023-11-25T02:55:17.351Z,12.60
2023-11-25T02:58:08.454Z,12.60
2023-11-25T03:01:02.788Z,12.60
2023-11-25T03:03:51.397Z,12.60
2023-11-25T03:06:40.004Z,12.60
2023-11-25T03:09:29.247Z,12.60
2023-11-25T03:12:17.683Z,12.60
2023-11-25T03:15:08.542Z,12.60
2023-11-25T03:17:57.036Z,12.60
2023-11-25T03:20:45.703Z,12.60
2023-11-25T03:23:34.072Z,12.60
2023-11-25T03:26:24.003Z,12.50
2023-11-25T03:29:12.497Z,12.60
2023-11-25T03:32:02.380Z,12.50
2023-11-25T03:34:51.347Z,12.50
2023-11-25T03:37:39.887Z,12.50
2023-11-25T03:40:28.501Z,12.50
2023-11-25T03:43:17.035Z,12.50
2023-11-25T03:46:05.609Z,12.50
2023-11-25T03:48:55.520Z,12.50
2023-11-25T03:51:43.958Z,12.50
2023-11-25T03:54:32.264Z,12.50
2023-11-25T03:57:21.630Z,12.50
2023-11-25T04:00:16.318Z,12.50
2023-11-25T04:03:05.144Z,12.50
2023-11-25T04:05:55.027Z,12.50
2023-11-25T04:08:43.407Z,12.50
2023-11-25T04:11:31.724Z,12.50
2023-11-25T04:14:20.254Z,12.50
2023-11-25T04:17:12.780Z,12.50
2023-11-25T04:20:01.581Z,12.50
2023-11-25T04:22:51.366Z,12.50
2023-11-25T04:25:41.100Z,12.50
2023-11-25T04:28:29.698Z,12.50
2023-11-25T04:31:18.459Z,12.50
2023-11-25T04:34:07.103Z,12.50
2023-11-25T04:36:55.562Z,12.50
2023-11-25T04:39:45.701Z,12.50
2023-11-25T04:42:34.460Z,12.50
2023-11-25T04:45:22.961Z,12.50
2023-11-25T04:48:11.463Z,12.50
2023-11-25T04:51:00.679Z,12.50
2023-11-25T04:53:49.306Z,12.60
2023-11-25T04:56:39.376Z,12.60
2023-11-25T04:59:27.777Z,12.50
2023-11-25T05:02:17.640Z,12.50
2023-11-25T05:05:07.493Z,12.50
2023-11-25T05:07:55.958Z,12.60
2023-11-25T05:10:44.468Z,12.50
2023-11-25T05:13:34.291Z,12.50
2023-11-25T05:16:23.068Z,12.50
2023-11-25T05:19:11.559Z,12.50
2023-11-25T05:21:59.961Z,12.50
2023-11-25T05:24:48.354Z,12.50
2023-11-25T05:27:37.309Z,12.50
2023-11-25T05:30:27.057Z,12.50
2023-11-25T05:33:15.371Z,12.50
2023-11-25T05:36:04.734Z,12.50
2023-11-25T05:38:53.418Z,12.50
2023-11-25T05:41:42.717Z,12.50
2023-11-25T05:44:32.752Z,12.50
2023-11-25T05:47:22.937Z,12.50
2023-11-25T05:50:11.880Z,12.50
2023-11-25T05:53:01.745Z,12.50
2023-11-25T05:55:50.302Z,12.40
2023-11-25T05:58:38.842Z,12.50
2023-11-25T06:01:28.008Z,12.40
2023-11-25T06:04:21.541Z,12.40
2023-11-25T06:07:10.673Z,12.40
2023-11-25T06:09:59.008Z,12.40
2023-11-25T06:12:47.697Z,12.40
2023-11-25T06:15:36.223Z,12.30
2023-11-25T06:18:25.859Z,12.30
2023-11-25T06:21:15.865Z,12.30
2023-11-25T06:24:05.554Z,12.40
2023-11-25T06:26:54.903Z,12.30
2023-11-25T06:29:44.531Z,12.30
2023-11-25T06:32:34.466Z,12.30
2023-11-25T06:35:24.940Z,12.30
2023-11-25T06:38:15.010Z,12.30
2023-11-25T06:41:03.823Z,12.30
2023-11-25T06:43:52.303Z,12.20
2023-11-25T06:46:40.924Z,12.20
2023-11-25T06:49:29.518Z,12.20
2023-11-25T06:52:17.874Z,12.20
2023-11-25T06:55:10.977Z,12.30
2023-11-25T06:57:59.519Z,12.30
2023-11-25T07:00:48.030Z,12.20
2023-11-25T07:03:37.175Z,12.20
2023-11-25T07:06:25.900Z,12.20
2023-11-25T07:09:15.292Z,12.20
2023-11-25T07:12:05.843Z,12.20
2023-11-25T07:14:55.522Z,12.30
2023-11-25T07:17:44.240Z,12.30
2023-11-25T07:20:33.763Z,12.30
2023-11-25T07:23:22.160Z,12.30
2023-11-25T07:26:13.121Z,12.30
2023-11-25T07:29:03.970Z,12.30
2023-11-25T07:31:53.095Z,12.30
2023-11-25T07:34:42.232Z,12.30
2023-11-25T07:37:30.709Z,12.40
2023-11-25T07:40:19.256Z,12.50
2023-11-25T07:43:07.819Z,12.50
2023-11-25T07:45:57.756Z,12.60
2023-11-25T07:48:46.632Z,12.70
2023-11-25T07:51:35.643Z,12.70
2023-11-25T07:54:25.017Z,12.80
2023-11-25T07:57:13.540Z,12.90
2023-11-25T08:00:01.950Z,13.00
2023-11-25T08:02:51.764Z,13.10
2023-11-25T08:05:40.293Z,13.10
2023-11-25T08:08:28.730Z,13.10
2023-11-25T08:11:24.838Z,13.10
2023-11-25T08:14:14.806Z,13.10
2023-11-25T08:17:03.492Z,13.20
2023-11-25T08:19:53.463Z,13.20
2023-11-25T08:22:42.172Z,13.40
2023-11-25T08:25:30.969Z,13.90
2023-11-25T08:28:19.365Z,14.80
2023-11-25T08:31:08.162Z,15.80
2023-11-25T08:33:56.819Z,16.70
2023-11-25T08:36:54.319Z,17.50
2023-11-25T08:39:44.052Z,18.20
2023-11-25T08:42:32.606Z,18.80
2023-11-25T08:45:21.773Z,19.10
2023-11-25T08:48:11.878Z,18.20
2023-11-25T08:51:00.262Z,17.60
2023-11-25T08:53:51.588Z,17.30
2023-11-25T08:56:42.396Z,18.60
2023-11-25T08:59:32.614Z,18.30
2023-11-25T09:02:23.943Z,19.00
2023-11-25T09:05:16.291Z,19.50
2023-11-25T09:08:08.256Z,19.80
2023-11-25T09:10:59.034Z,19.60
2023-11-25T09:13:47.490Z,19.60
2023-11-25T09:16:36.046Z,19.50
2023-11-25T09:19:24.893Z,19.50
2023-11-25T09:22:14.309Z,19.50
2023-11-25T09:25:02.853Z,19.40
2023-11-25T09:27:53.428Z,19.20
2023-11-25T09:30:41.973Z,18.90
2023-11-25T09:33:30.371Z,18.80
2023-11-25T09:36:18.803Z,18.60
2023-11-25T09:39:11.003Z,18.50
2023-11-25T09:42:01.039Z,18.40
2023-11-25T09:44:51.681Z,18.30
2023-11-25T09:47:40.389Z,18.20
2023-11-25T09:50:28.854Z,18.10
2023-11-25T09:53:24.865Z,18.00
2023-11-25T09:56:15.348Z,18.00
2023-11-25T09:59:04.490Z,18.10
2023-11-25T10:01:54.380Z,18.00
2023-11-25T10:04:43.771Z,18.00
2023-11-25T10:07:32.282Z,18.10
2023-11-25T10:10:25.417Z,18.20
2023-11-25T10:13:16.302Z,18.30
2023-11-25T10:16:05.601Z,18.30
2023-11-25T10:18:55.495Z,18.20
2023-11-25T10:21:43.872Z,18.20
2023-11-25T10:24:32.370Z,18.00
2023-11-25T10:27:20.986Z,18.00
2023-11-25T10:30:10.902Z,17.90
2023-11-25T10:33:02.876Z,17.80
2023-11-25T10:35:53.639Z,17.80
2023-11-25T10:38:43.394Z,17.70
2023-11-25T10:41:32.447Z,17.60
2023-11-25T10:44:21.857Z,17.40
2023-11-25T10:47:11.997Z,17.30
2023-11-25T10:50:02.588Z,17.30
2023-11-25T10:52:53.615Z,17.20
2023-11-25T10:55:44.375Z,17.10
2023-11-25T10:58:36.710Z,17.00
2023-11-25T11:01:27.270Z,16.90
2023-11-25T11:04:24.520Z,16.80
2023-11-25T11:07:17.599Z,16.80
2023-11-25T11:10:12.043Z,16.70
2023-11-25T11:13:05.436Z,16.60
2023-11-25T11:15:59.565Z,16.50
2023-11-25T11:18:48.253Z,16.50
2023-11-25T11:21:40.150Z,16.40
2023-11-25T11:24:34.503Z,16.30
2023-11-25T11:27:31.173Z,16.30
2023-11-25T11:30:26.989Z,16.20
2023-11-25T11:33:16.292Z,16.20
2023-11-25T11:36:07.730Z,16.10
2023-11-25T11:38:57.411Z,16.00
2023-11-25T11:41:46.006Z,16.00
2023-11-25T11:44:36.872Z,16.00
2023-11-25T11:47:26.645Z,16.00
2023-11-25T11:50:19.535Z,15.90
2023-11-25T11:53:15.393Z,15.90
2023-11-25T11:56:04.045Z,15.80
2023-11-25T11:59:04.601Z,15.80
2023-11-25T12:01:54.586Z,15.70
2023-11-25T12:04:44.883Z,15.70
2023-11-25T12:07:33.611Z,15.70
2023-11-25T12:10:22.392Z,15.60
2023-11-25T12:13:12.947Z,15.60
2023-11-25T12:16:02.778Z,15.50
2023-11-25T12:18:52.625Z,15.50
2023-11-25T12:21:41.250Z,15.40
2023-11-25T12:24:29.891Z,15.40
2023-11-25T12:27:20.668Z,15.30
2023-11-25T12:30:11.043Z,15.30
2023-11-25T12:32:59.661Z,15.30
2023-11-25T12:35:50.482Z,15.20
2023-11-25T12:38:39.203Z,15.20
2023-11-25T12:41:28.171Z,15.20
2023-11-25T12:44:17.825Z,15.10
2023-11-25T12:47:08.608Z,15.10
2023-11-25T12:50:06.020Z,15.10
2023-11-25T12:53:09.650Z,15.00
2023-11-25T12:55:58.873Z,15.00
2023-11-25T12:58:47.767Z,14.90
2023-11-25T13:01:37.732Z,14.90
2023-11-25T13:04:27.723Z,14.90
2023-11-25T13:07:31.454Z,14.80
2023-11-25T13:10:21.253Z,14.90
2023-11-25T13:13:09.902Z,14.90
2023-11-25T13:15:59.407Z,14.80
2023-11-25T13:18:51.472Z,14.80
2023-11-25T13:21:41.498Z,14.80
2023-11-25T13:24:29.931Z,14.70
2023-11-25T13:27:19.973Z,14.70
2023-11-25T13:30:09.258Z,14.70
2023-11-25T13:32:57.650Z,14.70
2023-11-25T13:35:46.610Z,14.60
2023-11-25T13:38:35.708Z,14.60
2023-11-25T13:41:24.205Z,14.60
2023-11-25T13:44:14.116Z,14.80
2023-11-25T13:47:02.604Z,15.00
2023-11-25T13:49:51.052Z,15.30
2023-11-25T13:52:40.064Z,15.50
2023-11-25T13:55:28.632Z,15.60
2023-11-25T13:58:18.300Z,15.80
2023-11-25T14:01:08.101Z,15.90
2023-11-25T14:03:57.830Z,16.00
2023-11-25T14:06:46.309Z,16.10
2023-11-25T14:09:34.646Z,16.10
2023-11-25T14:12:23.263Z,16.00
2023-11-25T14:15:11.875Z,15.90
2023-11-25T14:18:02.467Z,15.80
2023-11-25T14:20:50.894Z,15.70
2023-11-25T14:23:39.476Z,15.60
2023-11-25T14:26:28.178Z,15.50
2023-11-25T14:29:16.526Z,15.50
2023-11-25T14:32:05.483Z,15.40
2023-11-25T14:34:55.465Z,15.30
2023-11-25T14:37:45.317Z,15.30
2023-11-25T14:40:37.422Z,15.20
2023-11-25T14:43:26.360Z,15.10
2023-11-25T14:46:14.947Z,15.10
2023-11-25T14:49:06.200Z,15.00
2023-11-25T14:51:56.165Z,15.00
2023-11-25T14:54:44.747Z,15.00
2023-11-25T14:57:33.347Z,14.90
2023-11-25T15:00:23.877Z,14.80
2023-11-25T15:03:12.249Z,14.80
2023-11-25T15:06:00.842Z,14.80
2023-11-25T15:08:50.806Z,14.70
2023-11-25T15:11:41.376Z,14.70
2023-11-25T15:14:31.676Z,14.70
2023-11-25T15:17:20.126Z,14.60
2023-11-25T15:20:10.040Z,14.60
2023-11-25T15:23:01.044Z,14.50
2023-11-25T15:25:51.366Z,14.50
2023-11-25T15:28:40.918Z,14.50
2023-11-25T15:31:29.437Z,14.50
2023-11-25T15:34:19.089Z,14.50
2023-11-25T15:37:07.463Z,14.50
2023-11-25T15:39:56.077Z,14.50
2023-11-25T15:42:48.591Z,14.60
2023-11-25T15:45:37.583Z,14.60
2023-11-25T15:48:26.148Z,14.60
2023-11-25T15:51:14.717Z,14.60
2023-11-25T15:54:03.498Z,14.60
2023-11-25T15:56:52.063Z,14.50
2023-11-25T15:59:44.487Z,14.70
2023-11-25T16:02:32.878Z,14.80
2023-11-25T16:05:23.291Z,15.00
2023-11-25T16:08:11.933Z,15.20
2023-11-25T16:11:00.649Z,15.20
2023-11-25T16:13:49.102Z,15.10
2023-11-25T16:16:39.096Z,15.10
2023-11-25T16:19:27.723Z,15.00
2023-11-25T16:22:16.434Z,15.00
2023-11-25T16:25:07.020Z,14.90
2023-11-25T16:27:56.001Z,14.90
2023-11-25T16:30:44.433Z,14.80
2023-11-25T16:33:34.288Z,14.80
2023-11-25T16:36:22.857Z,14.70
2023-11-25T16:39:11.662Z,14.60
2023-11-25T16:42:00.249Z,14.60
2023-11-25T16:44:49.124Z,14.70
2023-11-25T16:47:38.059Z,14.70
2023-11-25T16:50:28.055Z,14.70
2023-11-25T16:53:18.083Z,14.70
2023-11-25T16:56:07.218Z,14.70
2023-11-25T16:58:55.712Z,14.60
2023-11-25T17:01:44.338Z,14.60
2023-11-25T17:04:33.348Z,14.50
2023-11-25T17:07:23.306Z,14.50
2023-11-25T17:10:11.750Z,14.50
2023-11-25T17:13:00.242Z,14.50
2023-11-25T17:15:48.587Z,14.50
2023-11-25T17:18:37.005Z,14.50
2023-11-25T17:21:25.484Z,14.40
2023-11-25T17:24:15.405Z,14.40
2023-11-25T17:27:03.870Z,14.40
2023-11-25T17:29:52.972Z,14.30
2023-11-25T17:32:41.784Z,14.30
2023-11-25T17:35:30.330Z,14.30
2023-11-25T17:38:20.154Z,14.30
2023-11-25T17:41:10.045Z,14.20
2023-11-25T17:44:00.178Z,14.30
2023-11-25T17:46:48.581Z,14.20
2023-11-25T17:49:37.128Z,14.20
2023-11-25T17:52:25.603Z,14.20
2023-11-25T17:55:14.002Z,14.20
2023-11-25T17:58:03.832Z,14.20
2023-11-25T18:00:54.394Z,14.10
2023-11-25T18:03:44.025Z,14.10
2023-11-25T18:06:32.497Z,14.10
2023-11-25T18:09:22.085Z,14.10
2023-11-25T18:12:10.597Z,14.10
2023-11-25T18:15:00.773Z,14.10
2023-11-25T18:17:49.476Z,14.10
2023-11-25T18:20:38.510Z,14.10
2023-11-25T18:23:27.762Z,14.10
2023-11-25T18:29:07.018Z,14.10
2023-11-25T18:31:57.429Z,14.10
2023-11-25T18:34:48.077Z,14.10
2023-11-25T18:37:36.862Z,14.00
2023-11-25T18:40:26.369Z,14.10
2023-11-25T18:43:15.554Z,14.10
2023-11-25T18:46:06.984Z,14.00
2023-11-25T18:48:57.322Z,14.10
2023-11-25T18:51:45.850Z,14.00
2023-11-25T18:54:34.449Z,14.00
2023-11-25T18:57:22.936Z,14.00
2023-11-25T19:00:13.688Z,14.00
2023-11-25T19:03:03.442Z,14.00
2023-11-25T19:05:53.213Z,14.00
2023-11-25T19:08:41.825Z,14.00
2023-11-25T19:11:30.411Z,14.00
2023-11-25T19:14:18.881Z,14.00
2023-11-25T19:17:09.122Z,13.90
2023-11-25T19:19:57.973Z,13.90
2023-11-25T19:22:48.115Z,13.90
2023-11-25T19:25:37.591Z,13.80
2023-11-25T19:28:26.072Z,13.80
2023-11-25T19:31:14.512Z,13.80
2023-11-25T19:34:02.892Z,13.80
2023-11-25T19:36:51.419Z,13.70
2023-11-25T19:39:43.270Z,13.70
2023-11-25T19:42:31.915Z,13.60
2023-11-25T19:45:20.833Z,13.60
2023-11-25T19:48:09.342Z,13.60
2023-11-25T19:50:58.207Z,13.60
2023-11-25T19:53:50.725Z,13.50
2023-11-25T19:56:42.084Z,13.50
2023-11-25T19:59:31.421Z,13.50
2023-11-25T20:02:19.919Z,13.50
2023-11-25T20:05:09.410Z,13.50
2023-11-25T20:07:58.027Z,13.40
2023-11-25T20:10:47.657Z,13.40
2023-11-25T20:13:37.580Z,13.40
2023-11-25T20:16:32.413Z,13.40
2023-11-25T20:19:21.172Z,13.30
2023-11-25T20:22:09.673Z,13.30
2023-11-25T20:25:00.925Z,13.30
2023-11-25T20:27:49.561Z,13.30
2023-11-25T20:30:39.422Z,13.30
2023-11-25T20:33:28.245Z,13.30
2023-11-25T20:36:16.697Z,13.30
2023-11-25T20:39:05.316Z,13.20
2023-11-25T20:41:54.319Z,13.20
2023-11-25T20:44:42.608Z,13.30
2023-11-25T20:47:32.499Z,13.20
2023-11-25T20:50:21.152Z,13.20
2023-11-25T20:53:09.710Z,13.20
2023-11-25T20:55:58.209Z,13.20
2023-11-25T20:58:46.679Z,13.20
2023-11-25T21:01:35.162Z,13.20
2023-11-25T21:04:25.138Z,13.20
2023-11-25T21:07:13.492Z,13.20
2023-11-25T21:10:02.010Z,13.20
2023-11-25T21:12:50.472Z,13.20
2023-11-25T21:15:38.798Z,13.20
2023-11-25T21:18:27.272Z,13.20
2023-11-25T21:21:18.857Z,13.20
2023-11-25T21:24:08.616Z,13.10
2023-11-25T21:26:57.358Z,13.20
2023-11-25T21:29:46.321Z,13.20
2023-11-25T21:32:37.130Z,13.20
2023-11-25T21:35:27.047Z,13.20
2023-11-25T21:38:17.047Z,13.20
2023-11-25T21:41:07.479Z,13.20
2023-11-25T21:43:56.003Z,13.20
2023-11-25T21:46:44.430Z,13.20
2023-11-25T21:49:33.353Z,13.20
2023-11-25T21:52:21.785Z,13.20
2023-11-25T21:55:11.880Z,13.10
2023-11-25T21:58:00.386Z,13.20
2023-11-25T22:00:48.728Z,13.20
2023-11-25T22:03:41.982Z,13.10
2023-11-25T22:06:31.007Z,13.10
2023-11-25T22:09:20.190Z,13.20
2023-11-25T22:12:10.332Z,13.10
2023-11-25T22:14:59.177Z,13.10
2023-11-25T22:17:48.630Z,13.10
2023-11-25T22:20:37.295Z,13.10
2023-11-25T22:23:25.815Z,13.20
2023-11-25T22:26:20.845Z,13.10
2023-11-25T22:29:10.894Z,13.10
2023-11-25T22:31:59.629Z,13.10
2023-11-25T22:34:48.384Z,13.10
2023-11-25T22:37:37.899Z,13.20
2023-11-25T22:40:26.658Z,13.20
2023-11-25T22:43:16.434Z,13.20
2023-11-25T22:46:06.663Z,13.20
2023-11-25T22:48:55.393Z,13.10
2023-11-25T22:51:43.914Z,13.10
2023-11-25T22:54:34.661Z,13.10
2023-11-25T22:57:23.502Z,13.10
2023-11-25T23:00:28.932Z,13.10
2023-11-25T23:03:19.166Z,13.10
2023-11-25T23:06:10.512Z,13.00
2023-11-25T23:09:00.373Z,13.10
2023-11-25T23:11:49.100Z,13.10
2023-11-25T23:14:39.770Z,13.00
2023-11-25T23:17:28.943Z,13.00
2023-11-25T23:20:18.932Z,13.00
2023-11-25T23:23:08.074Z,13.00
2023-11-25T23:25:57.941Z,13.00
2023-11-25T23:28:46.658Z,13.00
2023-11-25T23:31:35.020Z,13.00
2023-11-25T23:34:23.938Z,13.00
2023-11-25T23:37:17.351Z,13.00
2023-11-25T23:40:07.533Z,12.90
2023-11-25T23:42:56.446Z,13.00
2023-11-25T23:45:45.219Z,12.90
2023-11-25T23:48:33.766Z,13.00
2023-11-25T23:51:22.615Z,12.90
2023-11-25T23:54:12.313Z,12.90
2023-11-25T23:57:02.064Z,12.90
2023-11-25T23:59:50.532Z,12.90
